カンザスシティ の空港の天気 - METARとTAF

カンザスシティ国際空港 ( KMCI / MCI ) - アメリカ ミズーリ州カンザスシティ
飛行場実況気象(Metar)
観測時間08/14 14:53 CDT (08/14 19:53 UTC)
風向・風速東 3m/s
視程10km以上
天気現象
全天の8割程度の雲 雲底高度 1220m
気温31.7℃
湿度61%
気圧1012.8hPa
METARKMCI 141953Z 10006KT 10SM BKN040 32/23 A2995 RMK AO2 SLP128 T03170233
過去の天気等 Google飛行場航空写真 Wunderground天気予報

過去48時間のMETAR

飛行場予報(TAF)
発表時間: 8/14 12:20 CDT (8/14 17:20 UTC)
予報対象時間: 14日13時 CDT ~ 15日13時 CDT
風向・風速南南東 3m/s
視程10km以上
全天の4割程度の雲 雲底高度 760m
14日20時 CDT から
風向・風速南東 3m/s
視程10km以上
少しの雲 雲底高度 910m
全天の4割程度の雲 雲底高度 4570m
15日4時 CDT から
風向・風速北 4m/s
視程10km以上
天気現象周辺でしゅう雨
全天の8割程度の雲 雲底高度 1070m
全天の8割程度の雲 雲底高度 1830m
15日7時 CDT から
風向・風速北 3m/s
視程10km以上
全天の4割程度の雲 雲底高度 910m
KMCI 141720Z 1418/1518 15006KT P6SM SCT025
FM150100 14005KT P6SM FEW030 SCT150
FM150900 36007KT P6SM VCSH BKN035 BKN060
FM151200 36005KT P6SM SCT030